sensor_id;sensor_type;location;lat;lon;timestamp;P1;durP1;ratioP1;P2;durP2;ratioP2
56391;SDS011;42289;53.582;9.714;2022-10-16T00:01:05;13.85;;;8.70;;
56391;SDS011;42289;53.582;9.714;2022-10-16T00:03:33;13.90;;;8.50;;
56391;SDS011;42289;53.582;9.714;2022-10-16T00:05:59;17.00;;;9.35;;
56391;SDS011;42289;53.582;9.714;2022-10-16T00:08:27;14.50;;;8.63;;
56391;SDS011;42289;53.582;9.714;2022-10-16T00:10:58;12.00;;;7.97;;
56391;SDS011;42289;53.582;9.714;2022-10-16T00:13:25;14.32;;;8.10;;
56391;SDS011;42289;53.582;9.714;2022-10-16T00:15:54;14.00;;;8.10;;
56391;SDS011;42289;53.582;9.714;2022-10-16T00:18:21;12.95;;;7.55;;
56391;SDS011;42289;53.582;9.714;2022-10-16T00:20:48;11.80;;;7.18;;
56391;SDS011;42289;53.582;9.714;2022-10-16T00:23:14;12.25;;;7.30;;
56391;SDS011;42289;53.582;9.714;2022-10-16T00:25:40;9.85;;;6.22;;
56391;SDS011;42289;53.582;9.714;2022-10-16T00:28:07;15.18;;;6.40;;
56391;SDS011;42289;53.582;9.714;2022-10-16T00:30:33;11.00;;;6.20;;
56391;SDS011;42289;53.582;9.714;2022-10-16T00:33:04;10.05;;;6.03;;
56391;SDS011;42289;53.582;9.714;2022-10-16T00:35:31;11.63;;;6.13;;
56391;SDS011;42289;53.582;9.714;2022-10-16T00:37:57;10.52;;;5.47;;
56391;SDS011;42289;53.582;9.714;2022-10-16T00:40:24;9.25;;;4.97;;
56391;SDS011;42289;53.582;9.714;2022-10-16T00:42:50;9.85;;;4.90;;
56391;SDS011;42289;53.582;9.714;2022-10-16T00:45:17;7.35;;;4.40;;
56391;SDS011;42289;53.582;9.714;2022-10-16T00:47:43;9.13;;;4.47;;
56391;SDS011;42289;53.582;9.714;2022-10-16T00:50:18;8.52;;;4.18;;
56391;SDS011;42289;53.582;9.714;2022-10-16T00:52:50;5.45;;;3.45;;
56391;SDS011;42289;53.582;9.714;2022-10-16T00:55:17;10.18;;;4.20;;
56391;SDS011;42289;53.582;9.714;2022-10-16T00:57:45;7.00;;;3.67;;
56391;SDS011;42289;53.582;9.714;2022-10-16T01:00:13;6.43;;;3.47;;
56391;SDS011;42289;53.582;9.714;2022-10-16T01:02:42;8.15;;;3.70;;
56391;SDS011;42289;53.582;9.714;2022-10-16T01:05:08;7.60;;;3.97;;
56391;SDS011;42289;53.582;9.714;2022-10-16T01:07:39;8.27;;;3.58;;
56391;SDS011;42289;53.582;9.714;2022-10-16T01:10:21;6.10;;;3.30;;
56391;SDS011;42289;53.582;9.714;2022-10-16T01:12:57;6.90;;;3.47;;
56391;SDS011;42289;53.582;9.714;2022-10-16T01:15:27;7.03;;;3.25;;
56391;SDS011;42289;53.582;9.714;2022-10-16T01:18:00;7.53;;;3.40;;
56391;SDS011;42289;53.582;9.714;2022-10-16T01:20:33;5.38;;;3.10;;
56391;SDS011;42289;53.582;9.714;2022-10-16T01:23:07;7.07;;;3.28;;
56391;SDS011;42289;53.582;9.714;2022-10-16T01:25:52;8.18;;;3.20;;
56391;SDS011;42289;53.582;9.714;2022-10-16T01:28:34;8.30;;;3.35;;
56391;SDS011;42289;53.582;9.714;2022-10-16T01:31:05;7.18;;;3.17;;
56391;SDS011;42289;53.582;9.714;2022-10-16T01:33:34;5.00;;;2.80;;
56391;SDS011;42289;53.582;9.714;2022-10-16T01:36:06;6.43;;;3.20;;
56391;SDS011;42289;53.582;9.714;2022-10-16T01:38:38;5.40;;;2.90;;
56391;SDS011;42289;53.582;9.714;2022-10-16T01:41:07;5.47;;;2.63;;
56391;SDS011;42289;53.582;9.714;2022-10-16T01:43:38;5.25;;;2.40;;
56391;SDS011;42289;53.582;9.714;2022-10-16T01:46:08;6.25;;;2.72;;
56391;SDS011;42289;53.582;9.714;2022-10-16T01:48:36;13.60;;;2.70;;
56391;SDS011;42289;53.582;9.714;2022-10-16T01:51:04;7.13;;;2.72;;
56391;SDS011;42289;53.582;9.714;2022-10-16T01:53:35;5.82;;;2.60;;
56391;SDS011;42289;53.582;9.714;2022-10-16T01:56:03;7.85;;;2.65;;
56391;SDS011;42289;53.582;9.714;2022-10-16T01:58:33;6.88;;;2.90;;
56391;SDS011;42289;53.582;9.714;2022-10-16T02:01:05;9.23;;;2.60;;
56391;SDS011;42289;53.582;9.714;2022-10-16T02:03:36;6.20;;;2.65;;
56391;SDS011;42289;53.582;9.714;2022-10-16T02:06:06;5.88;;;2.60;;
56391;SDS011;42289;53.582;9.714;2022-10-16T02:08:34;4.60;;;2.60;;
56391;SDS011;42289;53.582;9.714;2022-10-16T02:11:01;4.22;;;2.17;;
56391;SDS011;42289;53.582;9.714;2022-10-16T02:13:30;6.68;;;2.40;;
56391;SDS011;42289;53.582;9.714;2022-10-16T02:16:02;7.00;;;2.40;;
56391;SDS011;42289;53.582;9.714;2022-10-16T02:19:17;8.60;;;2.50;;
56391;SDS011;42289;53.582;9.714;2022-10-16T02:21:50;6.13;;;2.40;;
56391;SDS011;42289;53.582;9.714;2022-10-16T02:25:17;5.18;;;2.05;;
56391;SDS011;42289;53.582;9.714;2022-10-16T02:29:19;5.07;;;2.22;;
56391;SDS011;42289;53.582;9.714;2022-10-16T02:32:09;8.88;;;2.30;;
56391;SDS011;42289;53.582;9.714;2022-10-16T02:35:03;6.05;;;2.17;;
56391;SDS011;42289;53.582;9.714;2022-10-16T02:38:09;5.80;;;1.60;;
56391;SDS011;42289;53.582;9.714;2022-10-16T02:45:30;3.65;;;1.70;;
56391;SDS011;42289;53.582;9.714;2022-10-16T02:47:58;4.20;;;1.90;;
56391;SDS011;42289;53.582;9.714;2022-10-16T02:50:42;6.03;;;2.10;;
56391;SDS011;42289;53.582;9.714;2022-10-16T02:54:02;5.32;;;1.83;;
56391;SDS011;42289;53.582;9.714;2022-10-16T02:56:38;3.80;;;1.75;;
56391;SDS011;42289;53.582;9.714;2022-10-16T03:05:32;9.02;;;2.10;;
56391;SDS011;42289;53.582;9.714;2022-10-16T03:08:04;8.20;;;2.13;;
56391;SDS011;42289;53.582;9.714;2022-10-16T03:14:00;3.53;;;1.45;;
56391;SDS011;42289;53.582;9.714;2022-10-16T03:34:15;5.57;;;1.90;;
56391;SDS011;42289;53.582;9.714;2022-10-16T03:50:55;5.25;;;2.15;;
56391;SDS011;42289;53.582;9.714;2022-10-16T03:59:56;5.63;;;2.10;;
56391;SDS011;42289;53.582;9.714;2022-10-16T04:02:53;5.72;;;2.13;;
56391;SDS011;42289;53.582;9.714;2022-10-16T04:13:25;10.63;;;1.92;;
56391;SDS011;42289;53.582;9.714;2022-10-16T04:16:47;3.47;;;2.00;;
56391;SDS011;42289;53.582;9.714;2022-10-16T04:20:13;6.18;;;2.40;;
56391;SDS011;42289;53.582;9.714;2022-10-16T04:25:10;5.63;;;2.20;;
56391;SDS011;42289;53.582;9.714;2022-10-16T04:45:51;6.45;;;3.08;;
56391;SDS011;42289;53.582;9.714;2022-10-16T04:49:35;7.05;;;2.75;;
56391;SDS011;42289;53.582;9.714;2022-10-16T04:59:02;10.48;;;4.47;;
56391;SDS011;42289;53.582;9.714;2022-10-16T05:22:44;8.50;;;3.72;;
56391;SDS011;42289;53.582;9.714;2022-10-16T05:46:10;10.88;;;4.13;;
56391;SDS011;42289;53.582;9.714;2022-10-16T05:59:32;9.70;;;4.57;;
56391;SDS011;42289;53.582;9.714;2022-10-16T06:01:57;8.00;;;4.35;;
56391;SDS011;42289;53.582;9.714;2022-10-16T06:04:44;9.88;;;4.57;;
56391;SDS011;42289;53.582;9.714;2022-10-16T06:11:34;9.60;;;5.15;;
56391;SDS011;42289;53.582;9.714;2022-10-16T06:15:00;9.23;;;4.72;;
56391;SDS011;42289;53.582;9.714;2022-10-16T06:20:44;11.30;;;4.63;;
56391;SDS011;42289;53.582;9.714;2022-10-16T06:27:06;12.35;;;4.40;;
56391;SDS011;42289;53.582;9.714;2022-10-16T06:36:23;8.40;;;4.50;;
56391;SDS011;42289;53.582;9.714;2022-10-16T06:42:49;11.52;;;6.60;;
56391;SDS011;42289;53.582;9.714;2022-10-16T06:45:35;9.85;;;5.25;;
56391;SDS011;42289;53.582;9.714;2022-10-16T06:48:17;9.02;;;4.57;;
56391;SDS011;42289;53.582;9.714;2022-10-16T06:50:58;7.10;;;4.13;;
56391;SDS011;42289;53.582;9.714;2022-10-16T06:57:02;9.65;;;4.45;;
56391;SDS011;42289;53.582;9.714;2022-10-16T06:59:38;8.10;;;4.22;;
56391;SDS011;42289;53.582;9.714;2022-10-16T07:02:20;9.75;;;4.55;;
56391;SDS011;42289;53.582;9.714;2022-10-16T07:09:13;9.23;;;4.70;;
56391;SDS011;42289;53.582;9.714;2022-10-16T07:12:22;9.07;;;4.68;;
56391;SDS011;42289;53.582;9.714;2022-10-16T07:18:45;11.05;;;5.10;;
56391;SDS011;42289;53.582;9.714;2022-10-16T07:21:22;11.13;;;4.90;;
56391;SDS011;42289;53.582;9.714;2022-10-16T07:24:45;9.30;;;4.47;;
56391;SDS011;42289;53.582;9.714;2022-10-16T07:27:49;6.85;;;4.45;;
56391;SDS011;42289;53.582;9.714;2022-10-16T07:31:08;8.88;;;4.85;;
56391;SDS011;42289;53.582;9.714;2022-10-16T07:44:45;10.00;;;4.20;;
56391;SDS011;42289;53.582;9.714;2022-10-16T07:53:40;7.47;;;3.75;;
56391;SDS011;42289;53.582;9.714;2022-10-16T08:00:17;9.07;;;4.30;;
56391;SDS011;42289;53.582;9.714;2022-10-16T08:02:57;8.73;;;4.55;;
56391;SDS011;42289;53.582;9.714;2022-10-16T08:05:35;9.07;;;4.40;;
56391;SDS011;42289;53.582;9.714;2022-10-16T08:08:05;8.20;;;5.18;;
56391;SDS011;42289;53.582;9.714;2022-10-16T08:11:00;8.55;;;4.63;;
56391;SDS011;42289;53.582;9.714;2022-10-16T08:13:39;8.13;;;4.60;;
56391;SDS011;42289;53.582;9.714;2022-10-16T08:16:31;8.35;;;4.20;;
56391;SDS011;42289;53.582;9.714;2022-10-16T08:18:57;11.90;;;4.85;;
56391;SDS011;42289;53.582;9.714;2022-10-16T08:21:24;8.00;;;4.43;;
56391;SDS011;42289;53.582;9.714;2022-10-16T08:23:52;6.82;;;3.95;;
56391;SDS011;42289;53.582;9.714;2022-10-16T08:26:19;8.02;;;4.32;;
56391;SDS011;42289;53.582;9.714;2022-10-16T08:28:48;9.50;;;3.55;;
56391;SDS011;42289;53.582;9.714;2022-10-16T08:31:15;8.93;;;3.70;;
56391;SDS011;42289;53.582;9.714;2022-10-16T08:33:42;7.93;;;3.83;;
56391;SDS011;42289;53.582;9.714;2022-10-16T08:36:11;5.38;;;3.40;;
56391;SDS011;42289;53.582;9.714;2022-10-16T08:38:38;8.65;;;3.70;;
56391;SDS011;42289;53.582;9.714;2022-10-16T08:41:20;8.00;;;3.65;;
56391;SDS011;42289;53.582;9.714;2022-10-16T08:44:16;6.63;;;3.63;;
56391;SDS011;42289;53.582;9.714;2022-10-16T08:46:55;7.15;;;3.92;;
56391;SDS011;42289;53.582;9.714;2022-10-16T08:49:29;7.05;;;3.97;;
56391;SDS011;42289;53.582;9.714;2022-10-16T08:51:56;7.07;;;3.58;;
56391;SDS011;42289;53.582;9.714;2022-10-16T08:54:25;6.20;;;3.90;;
56391;SDS011;42289;53.582;9.714;2022-10-16T08:56:57;8.20;;;3.90;;
56391;SDS011;42289;53.582;9.714;2022-10-16T08:59:33;8.00;;;3.75;;
56391;SDS011;42289;53.582;9.714;2022-10-16T09:01:59;6.78;;;3.53;;
56391;SDS011;42289;53.582;9.714;2022-10-16T09:04:41;7.78;;;3.10;;
56391;SDS011;42289;53.582;9.714;2022-10-16T09:07:17;8.00;;;3.10;;
56391;SDS011;42289;53.582;9.714;2022-10-16T09:09:53;7.90;;;3.33;;
56391;SDS011;42289;53.582;9.714;2022-10-16T09:12:28;6.85;;;3.17;;
56391;SDS011;42289;53.582;9.714;2022-10-16T09:15:06;9.77;;;2.80;;
56391;SDS011;42289;53.582;9.714;2022-10-16T09:17:42;5.70;;;2.63;;
56391;SDS011;42289;53.582;9.714;2022-10-16T09:23:15;6.30;;;2.70;;
56391;SDS011;42289;53.582;9.714;2022-10-16T09:25:44;4.95;;;2.38;;
56391;SDS011;42289;53.582;9.714;2022-10-16T09:28:15;6.20;;;2.72;;
56391;SDS011;42289;53.582;9.714;2022-10-16T09:30:42;6.18;;;2.35;;
56391;SDS011;42289;53.582;9.714;2022-10-16T09:33:10;4.65;;;2.33;;
56391;SDS011;42289;53.582;9.714;2022-10-16T09:35:39;7.68;;;2.53;;
56391;SDS011;42289;53.582;9.714;2022-10-16T09:38:07;6.35;;;2.40;;
56391;SDS011;42289;53.582;9.714;2022-10-16T09:40:35;4.82;;;2.28;;
56391;SDS011;42289;53.582;9.714;2022-10-16T09:43:06;4.85;;;2.45;;
56391;SDS011;42289;53.582;9.714;2022-10-16T09:45:53;8.40;;;2.58;;
56391;SDS011;42289;53.582;9.714;2022-10-16T09:48:20;8.32;;;2.30;;
56391;SDS011;42289;53.582;9.714;2022-10-16T09:50:55;7.53;;;2.92;;
56391;SDS011;42289;53.582;9.714;2022-10-16T09:53:22;5.15;;;1.88;;
56391;SDS011;42289;53.582;9.714;2022-10-16T09:55:52;4.13;;;1.80;;
56391;SDS011;42289;53.582;9.714;2022-10-16T09:58:22;6.25;;;2.05;;
56391;SDS011;42289;53.582;9.714;2022-10-16T10:00:49;6.45;;;2.10;;
56391;SDS011;42289;53.582;9.714;2022-10-16T10:03:35;3.50;;;1.67;;
56391;SDS011;42289;53.582;9.714;2022-10-16T10:06:07;9.93;;;2.00;;
56391;SDS011;42289;53.582;9.714;2022-10-16T10:08:55;7.32;;;2.00;;
56391;SDS011;42289;53.582;9.714;2022-10-16T10:11:38;5.50;;;1.63;;
56391;SDS011;42289;53.582;9.714;2022-10-16T10:14:11;7.45;;;1.77;;
56391;SDS011;42289;53.582;9.714;2022-10-16T10:16:42;7.80;;;2.15;;
56391;SDS011;42289;53.582;9.714;2022-10-16T10:19:12;6.05;;;1.85;;
56391;SDS011;42289;53.582;9.714;2022-10-16T10:21:40;8.93;;;1.90;;
56391;SDS011;42289;53.582;9.714;2022-10-16T10:24:09;7.68;;;1.73;;
56391;SDS011;42289;53.582;9.714;2022-10-16T10:26:36;8.75;;;1.90;;
56391;SDS011;42289;53.582;9.714;2022-10-16T10:29:05;6.32;;;2.13;;
56391;SDS011;42289;53.582;9.714;2022-10-16T10:31:41;5.47;;;1.58;;
56391;SDS011;42289;53.582;9.714;2022-10-16T10:34:18;5.43;;;1.73;;
56391;SDS011;42289;53.582;9.714;2022-10-16T10:36:53;4.07;;;1.42;;
56391;SDS011;42289;53.582;9.714;2022-10-16T10:39:28;4.22;;;1.60;;
56391;SDS011;42289;53.582;9.714;2022-10-16T10:44:54;5.50;;;1.40;;
56391;SDS011;42289;53.582;9.714;2022-10-16T10:47:38;5.60;;;1.52;;
56391;SDS011;42289;53.582;9.714;2022-10-16T10:50:14;6.82;;;1.42;;
56391;SDS011;42289;53.582;9.714;2022-10-16T10:52:52;5.47;;;1.50;;
56391;SDS011;42289;53.582;9.714;2022-10-16T10:55:26;3.25;;;1.30;;
56391;SDS011;42289;53.582;9.714;2022-10-16T10:58:13;6.30;;;1.60;;
56391;SDS011;42289;53.582;9.714;2022-10-16T11:00:51;7.90;;;1.60;;
56391;SDS011;42289;53.582;9.714;2022-10-16T11:03:31;7.28;;;2.10;;
56391;SDS011;42289;53.582;9.714;2022-10-16T11:06:10;9.27;;;2.67;;
56391;SDS011;42289;53.582;9.714;2022-10-16T11:08:42;5.40;;;1.77;;
56391;SDS011;42289;53.582;9.714;2022-10-16T11:11:14;8.10;;;2.20;;
56391;SDS011;42289;53.582;9.714;2022-10-16T11:13:47;5.28;;;1.52;;
56391;SDS011;42289;53.582;9.714;2022-10-16T11:16:22;6.05;;;2.10;;
56391;SDS011;42289;53.582;9.714;2022-10-16T11:18:56;4.60;;;1.55;;
56391;SDS011;42289;53.582;9.714;2022-10-16T11:21:29;4.13;;;1.00;;
56391;SDS011;42289;53.582;9.714;2022-10-16T11:24:11;3.97;;;1.42;;
56391;SDS011;42289;53.582;9.714;2022-10-16T11:26:42;3.15;;;1.08;;
56391;SDS011;42289;53.582;9.714;2022-10-16T11:29:14;5.15;;;1.00;;
56391;SDS011;42289;53.582;9.714;2022-10-16T11:31:46;6.07;;;1.58;;
56391;SDS011;42289;53.582;9.714;2022-10-16T11:34:21;5.03;;;1.38;;
56391;SDS011;42289;53.582;9.714;2022-10-16T11:36:51;4.63;;;1.17;;
56391;SDS011;42289;53.582;9.714;2022-10-16T11:39:24;4.20;;;1.20;;
56391;SDS011;42289;53.582;9.714;2022-10-16T11:41:53;3.75;;;1.15;;
56391;SDS011;42289;53.582;9.714;2022-10-16T11:44:33;8.13;;;1.30;;
56391;SDS011;42289;53.582;9.714;2022-10-16T11:47:09;3.83;;;1.05;;
56391;SDS011;42289;53.582;9.714;2022-10-16T11:49:51;5.63;;;1.10;;
56391;SDS011;42289;53.582;9.714;2022-10-16T11:52:23;8.00;;;1.70;;
56391;SDS011;42289;53.582;9.714;2022-10-16T11:54:55;6.85;;;1.60;;
56391;SDS011;42289;53.582;9.714;2022-10-16T11:57:26;6.07;;;1.92;;
56391;SDS011;42289;53.582;9.714;2022-10-16T11:59:56;4.50;;;1.63;;
56391;SDS011;42289;53.582;9.714;2022-10-16T12:02:28;3.55;;;1.30;;
56391;SDS011;42289;53.582;9.714;2022-10-16T12:05:06;4.22;;;1.42;;
56391;SDS011;42289;53.582;9.714;2022-10-16T12:07:42;3.33;;;1.30;;
56391;SDS011;42289;53.582;9.714;2022-10-16T12:10:19;2.88;;;1.20;;
56391;SDS011;42289;53.582;9.714;2022-10-16T12:12:47;4.15;;;1.42;;
56391;SDS011;42289;53.582;9.714;2022-10-16T12:15:18;5.80;;;1.17;;
56391;SDS011;42289;53.582;9.714;2022-10-16T12:20:26;5.38;;;1.10;;
56391;SDS011;42289;53.582;9.714;2022-10-16T12:22:56;4.28;;;1.20;;
56391;SDS011;42289;53.582;9.714;2022-10-16T12:25:27;4.80;;;1.40;;
56391;SDS011;42289;53.582;9.714;2022-10-16T12:27:56;5.13;;;1.20;;
56391;SDS011;42289;53.582;9.714;2022-10-16T12:30:26;6.57;;;1.08;;
56391;SDS011;42289;53.582;9.714;2022-10-16T12:32:54;6.15;;;1.25;;
56391;SDS011;42289;53.582;9.714;2022-10-16T12:35:23;4.57;;;1.30;;
56391;SDS011;42289;53.582;9.714;2022-10-16T12:37:52;3.75;;;1.25;;
56391;SDS011;42289;53.582;9.714;2022-10-16T12:40:25;4.22;;;0.90;;
56391;SDS011;42289;53.582;9.714;2022-10-16T12:42:54;3.83;;;0.95;;
56391;SDS011;42289;53.582;9.714;2022-10-16T12:45:25;4.13;;;1.27;;
56391;SDS011;42289;53.582;9.714;2022-10-16T12:47:54;5.68;;;1.17;;
56391;SDS011;42289;53.582;9.714;2022-10-16T12:50:26;4.32;;;1.23;;
56391;SDS011;42289;53.582;9.714;2022-10-16T12:52:57;7.93;;;1.20;;
56391;SDS011;42289;53.582;9.714;2022-10-16T12:55:24;5.03;;;1.15;;
56391;SDS011;42289;53.582;9.714;2022-10-16T12:58:00;4.70;;;1.30;;
56391;SDS011;42289;53.582;9.714;2022-10-16T13:00:36;3.10;;;1.00;;
56391;SDS011;42289;53.582;9.714;2022-10-16T13:06:08;3.58;;;1.10;;
56391;SDS011;42289;53.582;9.714;2022-10-16T13:08:58;3.28;;;1.00;;
56391;SDS011;42289;53.582;9.714;2022-10-16T13:11:38;7.38;;;1.40;;
56391;SDS011;42289;53.582;9.714;2022-10-16T13:14:21;7.03;;;1.10;;
56391;SDS011;42289;53.582;9.714;2022-10-16T13:17:01;7.80;;;1.42;;
56391;SDS011;42289;53.582;9.714;2022-10-16T13:19:35;6.47;;;1.10;;
56391;SDS011;42289;53.582;9.714;2022-10-16T13:22:11;5.90;;;1.10;;
56391;SDS011;42289;53.582;9.714;2022-10-16T13:24:48;4.70;;;1.10;;
56391;SDS011;42289;53.582;9.714;2022-10-16T13:27:25;5.57;;;1.20;;
56391;SDS011;42289;53.582;9.714;2022-10-16T13:30:01;9.00;;;1.20;;
56391;SDS011;42289;53.582;9.714;2022-10-16T13:32:35;5.70;;;1.60;;
56391;SDS011;42289;53.582;9.714;2022-10-16T13:35:02;5.18;;;1.20;;
56391;SDS011;42289;53.582;9.714;2022-10-16T13:37:29;5.03;;;0.90;;
56391;SDS011;42289;53.582;9.714;2022-10-16T13:40:04;5.20;;;0.98;;
56391;SDS011;42289;53.582;9.714;2022-10-16T13:42:43;4.35;;;1.10;;
56391;SDS011;42289;53.582;9.714;2022-10-16T13:45:16;3.55;;;1.10;;
56391;SDS011;42289;53.582;9.714;2022-10-16T13:47:44;4.72;;;1.30;;
56391;SDS011;42289;53.582;9.714;2022-10-16T13:50:11;3.53;;;1.02;;
56391;SDS011;42289;53.582;9.714;2022-10-16T13:52:39;5.30;;;1.10;;
56391;SDS011;42289;53.582;9.714;2022-10-16T13:55:11;4.55;;;1.40;;
56391;SDS011;42289;53.582;9.714;2022-10-16T13:57:38;3.63;;;1.02;;
56391;SDS011;42289;53.582;9.714;2022-10-16T14:00:17;5.22;;;1.00;;
56391;SDS011;42289;53.582;9.714;2022-10-16T14:02:44;7.93;;;1.60;;
56391;SDS011;42289;53.582;9.714;2022-10-16T14:05:13;8.48;;;1.42;;
56391;SDS011;42289;53.582;9.714;2022-10-16T14:07:40;4.55;;;1.10;;
56391;SDS011;42289;53.582;9.714;2022-10-16T14:10:18;6.63;;;1.40;;
56391;SDS011;42289;53.582;9.714;2022-10-16T14:12:53;5.32;;;0.98;;
56391;SDS011;42289;53.582;9.714;2022-10-16T14:15:21;3.25;;;1.30;;
56391;SDS011;42289;53.582;9.714;2022-10-16T14:17:48;5.10;;;1.20;;
56391;SDS011;42289;53.582;9.714;2022-10-16T14:20:17;3.85;;;1.02;;
56391;SDS011;42289;53.582;9.714;2022-10-16T14:22:46;3.38;;;0.93;;
56391;SDS011;42289;53.582;9.714;2022-10-16T14:25:21;5.95;;;1.27;;
56391;SDS011;42289;53.582;9.714;2022-10-16T14:28:03;6.80;;;1.45;;
56391;SDS011;42289;53.582;9.714;2022-10-16T14:30:49;4.97;;;1.25;;
56391;SDS011;42289;53.582;9.714;2022-10-16T14:33:21;3.13;;;0.90;;
56391;SDS011;42289;53.582;9.714;2022-10-16T14:36:00;4.53;;;1.70;;
56391;SDS011;42289;53.582;9.714;2022-10-16T14:38:29;4.13;;;1.20;;
56391;SDS011;42289;53.582;9.714;2022-10-16T14:40:58;5.10;;;1.38;;
56391;SDS011;42289;53.582;9.714;2022-10-16T14:43:28;5.35;;;1.23;;
56391;SDS011;42289;53.582;9.714;2022-10-16T14:45:58;7.63;;;1.38;;
56391;SDS011;42289;53.582;9.714;2022-10-16T14:48:26;4.88;;;1.00;;
56391;SDS011;42289;53.582;9.714;2022-10-16T14:50:52;5.22;;;1.48;;
56391;SDS011;42289;53.582;9.714;2022-10-16T14:53:19;5.60;;;1.52;;
56391;SDS011;42289;53.582;9.714;2022-10-16T14:55:45;6.43;;;1.50;;
56391;SDS011;42289;53.582;9.714;2022-10-16T14:58:15;5.30;;;1.52;;
56391;SDS011;42289;53.582;9.714;2022-10-16T15:00:42;9.05;;;1.60;;
56391;SDS011;42289;53.582;9.714;2022-10-16T15:03:08;6.53;;;1.40;;
56391;SDS011;42289;53.582;9.714;2022-10-16T15:05:35;5.68;;;1.35;;
56391;SDS011;42289;53.582;9.714;2022-10-16T15:08:02;5.60;;;1.15;;
56391;SDS011;42289;53.582;9.714;2022-10-16T15:10:29;5.00;;;1.33;;
56391;SDS011;42289;53.582;9.714;2022-10-16T15:12:57;5.95;;;1.13;;
56391;SDS011;42289;53.582;9.714;2022-10-16T15:15:30;7.80;;;1.30;;
56391;SDS011;42289;53.582;9.714;2022-10-16T15:18:00;6.72;;;1.27;;
56391;SDS011;42289;53.582;9.714;2022-10-16T15:20:28;7.45;;;1.58;;
56391;SDS011;42289;53.582;9.714;2022-10-16T15:22:56;6.10;;;1.58;;
56391;SDS011;42289;53.582;9.714;2022-10-16T15:25:29;4.38;;;1.67;;
56391;SDS011;42289;53.582;9.714;2022-10-16T15:27:57;6.60;;;1.30;;
56391;SDS011;42289;53.582;9.714;2022-10-16T15:30:24;5.75;;;1.23;;
56391;SDS011;42289;53.582;9.714;2022-10-16T15:32:52;5.22;;;1.42;;
56391;SDS011;42289;53.582;9.714;2022-10-16T15:35:19;7.22;;;1.33;;
56391;SDS011;42289;53.582;9.714;2022-10-16T15:37:46;7.53;;;1.65;;
56391;SDS011;42289;53.582;9.714;2022-10-16T15:40:13;6.25;;;1.60;;
56391;SDS011;42289;53.582;9.714;2022-10-16T15:42:40;8.07;;;1.73;;
56391;SDS011;42289;53.582;9.714;2022-10-16T15:45:07;8.60;;;1.30;;
56391;SDS011;42289;53.582;9.714;2022-10-16T15:47:35;5.82;;;1.35;;
56391;SDS011;42289;53.582;9.714;2022-10-16T15:50:03;6.03;;;1.33;;
56391;SDS011;42289;53.582;9.714;2022-10-16T15:52:30;6.28;;;1.45;;
56391;SDS011;42289;53.582;9.714;2022-10-16T15:54:56;8.07;;;1.55;;
56391;SDS011;42289;53.582;9.714;2022-10-16T15:57:23;5.45;;;1.50;;
56391;SDS011;42289;53.582;9.714;2022-10-16T15:59:49;5.93;;;1.40;;
56391;SDS011;42289;53.582;9.714;2022-10-16T16:02:16;8.63;;;1.40;;
56391;SDS011;42289;53.582;9.714;2022-10-16T16:04:42;5.07;;;1.23;;
56391;SDS011;42289;53.582;9.714;2022-10-16T16:07:10;8.18;;;1.92;;
56391;SDS011;42289;53.582;9.714;2022-10-16T16:09:37;6.82;;;2.22;;
56391;SDS011;42289;53.582;9.714;2022-10-16T16:12:03;7.15;;;1.90;;
56391;SDS011;42289;53.582;9.714;2022-10-16T16:14:30;8.05;;;2.33;;
56391;SDS011;42289;53.582;9.714;2022-10-16T16:16:56;8.98;;;2.25;;
56391;SDS011;42289;53.582;9.714;2022-10-16T16:19:23;8.20;;;2.33;;
56391;SDS011;42289;53.582;9.714;2022-10-16T16:21:50;7.25;;;2.20;;
56391;SDS011;42289;53.582;9.714;2022-10-16T16:24:17;7.95;;;2.08;;
56391;SDS011;42289;53.582;9.714;2022-10-16T16:26:44;8.18;;;2.13;;
56391;SDS011;42289;53.582;9.714;2022-10-16T16:29:11;7.25;;;1.90;;
56391;SDS011;42289;53.582;9.714;2022-10-16T16:31:38;6.50;;;2.13;;
56391;SDS011;42289;53.582;9.714;2022-10-16T16:34:06;10.23;;;2.20;;
56391;SDS011;42289;53.582;9.714;2022-10-16T16:36:33;7.35;;;2.08;;
56391;SDS011;42289;53.582;9.714;2022-10-16T16:39:00;8.55;;;2.20;;
56391;SDS011;42289;53.582;9.714;2022-10-16T16:41:29;7.82;;;2.17;;
56391;SDS011;42289;53.582;9.714;2022-10-16T16:44:00;8.80;;;2.72;;
56391;SDS011;42289;53.582;9.714;2022-10-16T16:46:27;9.85;;;2.60;;
56391;SDS011;42289;53.582;9.714;2022-10-16T16:48:54;13.48;;;2.95;;
56391;SDS011;42289;53.582;9.714;2022-10-16T16:51:20;8.45;;;2.95;;
56391;SDS011;42289;53.582;9.714;2022-10-16T16:53:48;12.85;;;3.20;;
56391;SDS011;42289;53.582;9.714;2022-10-16T16:56:16;10.18;;;3.40;;
56391;SDS011;42289;53.582;9.714;2022-10-16T16:58:45;9.23;;;3.05;;
56391;SDS011;42289;53.582;9.714;2022-10-16T17:01:13;10.70;;;3.00;;
56391;SDS011;42289;53.582;9.714;2022-10-16T17:03:41;13.27;;;2.85;;
56391;SDS011;42289;53.582;9.714;2022-10-16T17:06:09;8.75;;;2.50;;
56391;SDS011;42289;53.582;9.714;2022-10-16T17:08:36;8.25;;;2.15;;
56391;SDS011;42289;53.582;9.714;2022-10-16T17:11:03;9.00;;;2.65;;
56391;SDS011;42289;53.582;9.714;2022-10-16T17:13:31;6.68;;;2.00;;
56391;SDS011;42289;53.582;9.714;2022-10-16T17:16:02;6.85;;;1.88;;
56391;SDS011;42289;53.582;9.714;2022-10-16T17:18:30;8.60;;;2.72;;
56391;SDS011;42289;53.582;9.714;2022-10-16T17:20:58;10.70;;;4.20;;
56391;SDS011;42289;53.582;9.714;2022-10-16T17:23:25;12.00;;;5.75;;
56391;SDS011;42289;53.582;9.714;2022-10-16T17:25:52;11.23;;;4.65;;
56391;SDS011;42289;53.582;9.714;2022-10-16T17:28:19;12.98;;;3.22;;
56391;SDS011;42289;53.582;9.714;2022-10-16T17:30:45;9.63;;;3.08;;
56391;SDS011;42289;53.582;9.714;2022-10-16T17:33:13;7.13;;;2.63;;
56391;SDS011;42289;53.582;9.714;2022-10-16T17:35:41;9.00;;;3.10;;
56391;SDS011;42289;53.582;9.714;2022-10-16T17:38:08;8.40;;;2.95;;
56391;SDS011;42289;53.582;9.714;2022-10-16T17:40:36;11.07;;;3.30;;
56391;SDS011;42289;53.582;9.714;2022-10-16T17:43:03;10.30;;;3.03;;
56391;SDS011;42289;53.582;9.714;2022-10-16T17:45:30;10.65;;;3.25;;
56391;SDS011;42289;53.582;9.714;2022-10-16T17:47:57;9.60;;;3.17;;
56391;SDS011;42289;53.582;9.714;2022-10-16T17:50:25;10.95;;;4.18;;
56391;SDS011;42289;53.582;9.714;2022-10-16T17:52:51;9.05;;;3.33;;
56391;SDS011;42289;53.582;9.714;2022-10-16T17:55:18;10.50;;;3.63;;
56391;SDS011;42289;53.582;9.714;2022-10-16T17:57:45;10.65;;;3.75;;
56391;SDS011;42289;53.582;9.714;2022-10-16T18:00:12;10.50;;;3.70;;
56391;SDS011;42289;53.582;9.714;2022-10-16T18:02:38;11.13;;;4.38;;
56391;SDS011;42289;53.582;9.714;2022-10-16T18:05:06;12.23;;;4.50;;
56391;SDS011;42289;53.582;9.714;2022-10-16T18:07:35;11.55;;;4.22;;
56391;SDS011;42289;53.582;9.714;2022-10-16T18:10:01;11.18;;;4.60;;
56391;SDS011;42289;53.582;9.714;2022-10-16T18:12:30;10.95;;;4.38;;
56391;SDS011;42289;53.582;9.714;2022-10-16T18:14:57;9.60;;;4.20;;
56391;SDS011;42289;53.582;9.714;2022-10-16T18:17:24;9.45;;;4.10;;
56391;SDS011;42289;53.582;9.714;2022-10-16T18:19:50;11.48;;;4.63;;
56391;SDS011;42289;53.582;9.714;2022-10-16T18:22:16;10.77;;;4.32;;
56391;SDS011;42289;53.582;9.714;2022-10-16T18:24:44;13.65;;;5.68;;
56391;SDS011;42289;53.582;9.714;2022-10-16T18:27:11;12.38;;;5.90;;
56391;SDS011;42289;53.582;9.714;2022-10-16T18:29:37;16.60;;;6.35;;
56391;SDS011;42289;53.582;9.714;2022-10-16T18:32:04;15.40;;;5.88;;
56391;SDS011;42289;53.582;9.714;2022-10-16T18:34:32;16.75;;;6.50;;
56391;SDS011;42289;53.582;9.714;2022-10-16T18:37:01;16.73;;;5.72;;
56391;SDS011;42289;53.582;9.714;2022-10-16T18:39:27;12.75;;;5.82;;
56391;SDS011;42289;53.582;9.714;2022-10-16T18:41:55;14.82;;;5.78;;
56391;SDS011;42289;53.582;9.714;2022-10-16T18:44:23;16.83;;;6.72;;
56391;SDS011;42289;53.582;9.714;2022-10-16T18:46:50;17.20;;;7.13;;
56391;SDS011;42289;53.582;9.714;2022-10-16T18:49:20;16.13;;;7.18;;